sensor_id;sensor_type;location;lat;lon;timestamp;pressure;altitude;pressure_sealevel;temperature;humidity
77161;BME280;66135;0.000;0.000;2023-05-23T00:01:34;101751.59;;;20.72;66.16
77161;BME280;66135;0.000;0.000;2023-05-23T00:04:02;101747.00;;;20.73;66.15
77161;BME280;66135;0.000;0.000;2023-05-23T00:06:28;101742.72;;;20.70;66.23
77161;BME280;66135;0.000;0.000;2023-05-23T00:08:53;101747.31;;;20.70;66.24
77161;BME280;66135;0.000;0.000;2023-05-23T00:11:18;101749.03;;;20.71;66.34
77161;BME280;66135;0.000;0.000;2023-05-23T00:13:44;101755.31;;;20.71;66.07
77161;BME280;66135;0.000;0.000;2023-05-23T00:16:10;101766.06;;;20.73;66.09
77161;BME280;66135;0.000;0.000;2023-05-23T00:18:36;101762.47;;;20.72;66.12
77161;BME280;66135;0.000;0.000;2023-05-23T00:21:02;101757.03;;;20.72;66.01
77161;BME280;66135;0.000;0.000;2023-05-23T00:23:27;101752.59;;;20.71;65.93
77161;BME280;66135;0.000;0.000;2023-05-23T00:25:54;101765.38;;;20.71;66.11
77161;BME280;66135;0.000;0.000;2023-05-23T00:28:20;101768.09;;;20.71;65.95
77161;BME280;66135;0.000;0.000;2023-05-23T00:30:47;101768.28;;;20.69;65.94
77161;BME280;66135;0.000;0.000;2023-05-23T00:33:16;101773.88;;;20.68;66.05
77161;BME280;66135;0.000;0.000;2023-05-23T00:35:46;101768.59;;;20.66;65.95
77161;BME280;66135;0.000;0.000;2023-05-23T00:38:11;101764.88;;;20.67;65.93
77161;BME280;66135;0.000;0.000;2023-05-23T00:40:37;101763.16;;;20.66;65.97
77161;BME280;66135;0.000;0.000;2023-05-23T00:43:02;101760.25;;;20.68;65.92
77161;BME280;66135;0.000;0.000;2023-05-23T00:45:28;101760.41;;;20.66;66.09
77161;BME280;66135;0.000;0.000;2023-05-23T00:47:53;101771.00;;;20.69;65.86
77161;BME280;66135;0.000;0.000;2023-05-23T00:50:19;101761.28;;;20.67;65.96
77161;BME280;66135;0.000;0.000;2023-05-23T00:52:47;101767.75;;;20.66;65.92
77161;BME280;66135;0.000;0.000;2023-05-23T00:55:13;101770.47;;;20.66;65.86
77161;BME280;66135;0.000;0.000;2023-05-23T00:57:38;101774.22;;;20.65;65.79
77161;BME280;66135;0.000;0.000;2023-05-23T01:00:07;101770.63;;;20.64;65.90
77161;BME280;66135;0.000;0.000;2023-05-23T01:02:34;101774.22;;;20.65;65.71
77161;BME280;66135;0.000;0.000;2023-05-23T01:05:02;101784.94;;;20.66;65.67
77161;BME280;66135;0.000;0.000;2023-05-23T01:07:27;101777.09;;;20.63;65.78
77161;BME280;66135;0.000;0.000;2023-05-23T01:09:53;101785.97;;;20.65;65.69
77161;BME280;66135;0.000;0.000;2023-05-23T01:15:18;101785.09;;;20.65;65.70
77161;BME280;66135;0.000;0.000;2023-05-23T01:20:21;101785.97;;;20.65;65.70
77161;BME280;66135;0.000;0.000;2023-05-23T01:25:37;101797.03;;;20.64;65.74
77161;BME280;66135;0.000;0.000;2023-05-23T01:28:10;101792.41;;;20.64;65.61
77161;BME280;66135;0.000;0.000;2023-05-23T01:30:39;101798.19;;;20.61;65.54
77161;BME280;66135;0.000;0.000;2023-05-23T01:33:07;101796.34;;;20.62;65.60
77161;BME280;66135;0.000;0.000;2023-05-23T01:35:32;101795.47;;;20.61;65.63
77161;BME280;66135;0.000;0.000;2023-05-23T01:37:58;101799.06;;;20.62;65.58
77161;BME280;66135;0.000;0.000;2023-05-23T01:40:24;101809.09;;;20.61;65.51
77161;BME280;66135;0.000;0.000;2023-05-23T01:42:51;101802.94;;;20.59;65.69
77161;BME280;66135;0.000;0.000;2023-05-23T01:45:17;101808.22;;;20.61;65.59
77161;BME280;66135;0.000;0.000;2023-05-23T01:47:44;101809.09;;;20.61;65.64
77161;BME280;66135;0.000;0.000;2023-05-23T01:50:10;101808.22;;;20.61;65.59
77161;BME280;66135;0.000;0.000;2023-05-23T01:52:36;101806.88;;;20.57;65.58
77161;BME280;66135;0.000;0.000;2023-05-23T01:55:05;101806.72;;;20.58;65.56
77161;BME280;66135;0.000;0.000;2023-05-23T01:57:36;101809.44;;;20.58;65.57
77161;BME280;66135;0.000;0.000;2023-05-23T02:00:05;101807.56;;;20.59;65.56
77161;BME280;66135;0.000;0.000;2023-05-23T02:02:34;101807.56;;;20.59;65.52
77161;BME280;66135;0.000;0.000;2023-05-23T02:04:59;101809.59;;;20.57;65.45
77161;BME280;66135;0.000;0.000;2023-05-23T02:07:24;101814.19;;;20.56;65.44
77161;BME280;66135;0.000;0.000;2023-05-23T02:09:50;101812.16;;;20.58;65.42
77161;BME280;66135;0.000;0.000;2023-05-23T02:12:15;101814.88;;;20.58;65.48
77161;BME280;66135;0.000;0.000;2023-05-23T02:14:40;101819.63;;;20.56;65.49
77161;BME280;66135;0.000;0.000;2023-05-23T02:17:07;101826.09;;;20.55;65.48
77161;BME280;66135;0.000;0.000;2023-05-23T02:19:34;101826.81;;;20.57;65.34
77161;BME280;66135;0.000;0.000;2023-05-23T02:22:00;101828.66;;;20.57;65.45
77161;BME280;66135;0.000;0.000;2023-05-23T02:24:25;101831.56;;;20.55;65.33
77161;BME280;66135;0.000;0.000;2023-05-23T02:26:50;101826.94;;;20.56;65.40
77161;BME280;66135;0.000;0.000;2023-05-23T02:29:17;101833.59;;;20.53;65.47
77161;BME280;66135;0.000;0.000;2023-05-23T02:31:44;101835.28;;;20.54;65.40
77161;BME280;66135;0.000;0.000;2023-05-23T02:34:09;101835.28;;;20.54;65.37
77161;BME280;66135;0.000;0.000;2023-05-23T02:36:34;101837.16;;;20.54;65.33
77161;BME280;66135;0.000;0.000;2023-05-23T02:39:02;101839.03;;;20.53;65.34
77161;BME280;66135;0.000;0.000;2023-05-23T02:41:27;101837.31;;;20.52;65.30
77161;BME280;66135;0.000;0.000;2023-05-23T02:43:53;101841.91;;;20.52;65.42
77161;BME280;66135;0.000;0.000;2023-05-23T02:46:18;101843.78;;;20.51;65.46
77161;BME280;66135;0.000;0.000;2023-05-23T02:48:44;101843.09;;;20.49;65.38
77161;BME280;66135;0.000;0.000;2023-05-23T02:51:09;101840.03;;;20.52;65.31
77161;BME280;66135;0.000;0.000;2023-05-23T02:53:34;101832.72;;;20.53;65.26
77161;BME280;66135;0.000;0.000;2023-05-23T02:56:00;101831.03;;;20.52;65.35
77161;BME280;66135;0.000;0.000;2023-05-23T02:58:25;101830.34;;;20.50;65.29
77161;BME280;66135;0.000;0.000;2023-05-23T03:00:51;101832.22;;;20.49;65.31
77161;BME280;66135;0.000;0.000;2023-05-23T03:03:16;101836.13;;;20.47;65.35
77161;BME280;66135;0.000;0.000;2023-05-23T03:05:42;101834.06;;;20.49;65.37
77161;BME280;66135;0.000;0.000;2023-05-23T03:08:07;101842.09;;;20.50;65.15
77161;BME280;66135;0.000;0.000;2023-05-23T03:10:33;101834.22;;;20.47;65.33
77161;BME280;66135;0.000;0.000;2023-05-23T03:12:58;101827.09;;;20.46;65.21
77161;BME280;66135;0.000;0.000;2023-05-23T03:15:24;101828.78;;;20.47;65.17
77161;BME280;66135;0.000;0.000;2023-05-23T03:17:49;101834.06;;;20.49;65.24
77161;BME280;66135;0.000;0.000;2023-05-23T03:20:15;101837.66;;;20.49;65.12
77161;BME280;66135;0.000;0.000;2023-05-23T03:22:40;101828.78;;;20.47;65.20
77161;BME280;66135;0.000;0.000;2023-05-23T03:25:08;101845.97;;;20.48;65.16
77161;BME280;66135;0.000;0.000;2023-05-23T03:27:33;101857.03;;;20.46;65.18
77161;BME280;66135;0.000;0.000;2023-05-23T03:29:59;101847.16;;;20.45;65.25
77161;BME280;66135;0.000;0.000;2023-05-23T03:32:24;101858.03;;;20.45;65.20
77161;BME280;66135;0.000;0.000;2023-05-23T03:34:50;101843.59;;;20.45;65.19
77161;BME280;66135;0.000;0.000;2023-05-23T03:37:15;101852.59;;;20.45;65.19
77161;BME280;66135;0.000;0.000;2023-05-23T03:39:40;101851.59;;;20.46;65.07
77161;BME280;66135;0.000;0.000;2023-05-23T03:42:06;101851.59;;;20.46;65.21
77161;BME280;66135;0.000;0.000;2023-05-23T03:44:31;101850.03;;;20.44;65.12
77161;BME280;66135;0.000;0.000;2023-05-23T03:46:57;101857.03;;;20.46;65.08
77161;BME280;66135;0.000;0.000;2023-05-23T03:49:22;101859.75;;;20.46;64.99
77161;BME280;66135;0.000;0.000;2023-05-23T03:51:47;101859.06;;;20.44;65.08
77161;BME280;66135;0.000;0.000;2023-05-23T03:54:13;101858.22;;;20.44;65.13
77161;BME280;66135;0.000;0.000;2023-05-23T03:56:38;101853.47;;;20.46;65.09
77161;BME280;66135;0.000;0.000;2023-05-23T03:59:04;101856.34;;;20.44;65.02
77161;BME280;66135;0.000;0.000;2023-05-23T04:01:29;101860.94;;;20.44;65.14
77161;BME280;66135;0.000;0.000;2023-05-23T04:03:54;101866.38;;;20.44;65.00
77161;BME280;66135;0.000;0.000;2023-05-23T04:06:20;101865.38;;;20.45;64.95
77161;BME280;66135;0.000;0.000;2023-05-23T04:08:47;101864.69;;;20.43;65.03
77161;BME280;66135;0.000;0.000;2023-05-23T04:11:12;101867.41;;;20.43;65.09
77161;BME280;66135;0.000;0.000;2023-05-23T04:13:38;101872.84;;;20.43;65.01
77161;BME280;66135;0.000;0.000;2023-05-23T04:16:03;101878.28;;;20.43;65.57
77161;BME280;66135;0.000;0.000;2023-05-23T04:18:30;101870.31;;;20.41;65.20
77161;BME280;66135;0.000;0.000;2023-05-23T04:20:58;101877.59;;;20.41;64.90
77161;BME280;66135;0.000;0.000;2023-05-23T04:23:23;101879.28;;;20.42;65.13
77161;BME280;66135;0.000;0.000;2023-05-23T04:25:48;101876.75;;;20.40;65.10
77161;BME280;66135;0.000;0.000;2023-05-23T04:28:16;101879.47;;;20.40;64.99
77161;BME280;66135;0.000;0.000;2023-05-23T04:30:43;101882.34;;;20.39;65.15
77161;BME280;66135;0.000;0.000;2023-05-23T04:33:08;101875.91;;;20.40;65.04
77161;BME280;66135;0.000;0.000;2023-05-23T04:35:34;101887.63;;;20.40;65.01
77161;BME280;66135;0.000;0.000;2023-05-23T04:38:03;101891.03;;;20.42;65.26
77161;BME280;66135;0.000;0.000;2023-05-23T04:40:28;101891.72;;;20.44;64.76
77161;BME280;66135;0.000;0.000;2023-05-23T04:42:54;101890.19;;;20.42;64.98
77161;BME280;66135;0.000;0.000;2023-05-23T04:45:20;101889.34;;;20.41;65.17
77161;BME280;66135;0.000;0.000;2023-05-23T04:47:46;101894.09;;;20.39;65.11
77161;BME280;66135;0.000;0.000;2023-05-23T04:50:12;101891.38;;;20.39;65.09
77161;BME280;66135;0.000;0.000;2023-05-23T04:52:39;101901.25;;;20.40;65.09
77161;BME280;66135;0.000;0.000;2023-05-23T04:55:06;101900.41;;;20.40;64.98
77161;BME280;66135;0.000;0.000;2023-05-23T04:57:35;101897.81;;;20.38;64.98
77161;BME280;66135;0.000;0.000;2023-05-23T05:00:02;101907.72;;;20.39;64.92
77161;BME280;66135;0.000;0.000;2023-05-23T05:02:32;101897.81;;;20.38;65.03
77161;BME280;66135;0.000;0.000;2023-05-23T05:04:59;101909.75;;;20.37;65.02
77161;BME280;66135;0.000;0.000;2023-05-23T05:07:25;101911.44;;;20.38;64.91
77161;BME280;66135;0.000;0.000;2023-05-23T05:09:50;101920.63;;;20.37;65.12
77161;BME280;66135;0.000;0.000;2023-05-23T05:12:15;101909.91;;;20.36;64.91
77161;BME280;66135;0.000;0.000;2023-05-23T05:14:41;101916.22;;;20.36;65.05
77161;BME280;66135;0.000;0.000;2023-05-23T05:17:06;101922.47;;;20.37;64.95
77161;BME280;66135;0.000;0.000;2023-05-23T05:19:32;101920.78;;;20.36;65.29
77161;BME280;66135;0.000;0.000;2023-05-23T05:21:57;101923.50;;;20.36;64.98
77161;BME280;66135;0.000;0.000;2023-05-23T05:24:24;101927.94;;;20.37;64.99
77161;BME280;66135;0.000;0.000;2023-05-23T05:26:49;101927.75;;;20.38;64.99
77161;BME280;66135;0.000;0.000;2023-05-23T05:29:15;101929.81;;;20.36;65.00
77161;BME280;66135;0.000;0.000;2023-05-23T05:31:40;101935.56;;;20.33;65.17
77161;BME280;66135;0.000;0.000;2023-05-23T05:34:07;101935.56;;;20.33;65.14
77161;BME280;66135;0.000;0.000;2023-05-23T05:36:32;101929.13;;;20.34;65.17
77161;BME280;66135;0.000;0.000;2023-05-23T05:38:58;101941.00;;;20.33;65.01
77161;BME280;66135;0.000;0.000;2023-05-23T05:41:23;101941.88;;;20.34;65.13
77161;BME280;66135;0.000;0.000;2023-05-23T05:43:51;101946.28;;;20.35;65.00
77161;BME280;66135;0.000;0.000;2023-05-23T05:46:16;101938.13;;;20.35;65.27
77161;BME280;66135;0.000;0.000;2023-05-23T05:48:42;101944.59;;;20.34;65.28
77161;BME280;66135;0.000;0.000;2023-05-23T05:51:07;101935.56;;;20.33;65.21
77161;BME280;66135;0.000;0.000;2023-05-23T05:53:33;101946.63;;;20.32;65.31
77161;BME280;66135;0.000;0.000;2023-05-23T05:55:58;101950.19;;;20.32;65.27
77161;BME280;66135;0.000;0.000;2023-05-23T05:58:23;101956.50;;;20.33;65.17
77161;BME280;66135;0.000;0.000;2023-05-23T06:00:49;101956.50;;;20.33;65.22
77161;BME280;66135;0.000;0.000;2023-05-23T06:03:14;101960.91;;;20.34;65.42
77161;BME280;66135;0.000;0.000;2023-05-23T06:05:40;101958.03;;;20.35;65.28
77161;BME280;66135;0.000;0.000;2023-05-23T06:08:05;101961.78;;;20.34;65.54
77161;BME280;66135;0.000;0.000;2023-05-23T06:10:31;101963.47;;;20.35;65.26
77161;BME280;66135;0.000;0.000;2023-05-23T06:12:57;101969.94;;;20.34;65.38
77161;BME280;66135;0.000;0.000;2023-05-23T06:15:22;101974.34;;;20.35;64.63
77161;BME280;66135;0.000;0.000;2023-05-23T06:17:47;101970.94;;;20.33;64.67
77161;BME280;66135;0.000;0.000;2023-05-23T06:20:13;101982.69;;;20.34;64.67
77161;BME280;66135;0.000;0.000;2023-05-23T06:22:38;101983.72;;;20.33;64.46
77161;BME280;66135;0.000;0.000;2023-05-23T06:25:05;101987.28;;;20.33;64.39
77161;BME280;66135;0.000;0.000;2023-05-23T06:27:31;101987.28;;;20.33;63.79
77161;BME280;66135;0.000;0.000;2023-05-23T06:29:56;101978.41;;;20.31;64.26
77161;BME280;66135;0.000;0.000;2023-05-23T06:32:21;101981.13;;;20.31;64.06
77161;BME280;66135;0.000;0.000;2023-05-23T06:34:47;101990.31;;;20.30;64.10
77161;BME280;66135;0.000;0.000;2023-05-23T06:37:12;101993.03;;;20.30;64.04
77161;BME280;66135;0.000;0.000;2023-05-23T06:39:38;101988.63;;;20.29;64.04
77161;BME280;66135;0.000;0.000;2023-05-23T06:42:03;102004.09;;;20.29;64.17
77161;BME280;66135;0.000;0.000;2023-05-23T06:44:29;101994.22;;;20.28;64.03
77161;BME280;66135;0.000;0.000;2023-05-23T06:46:54;102003.22;;;20.28;64.13
77161;BME280;66135;0.000;0.000;2023-05-23T06:49:24;102008.69;;;20.28;63.98
77161;BME280;66135;0.000;0.000;2023-05-23T06:51:50;102014.13;;;20.28;63.99
77161;BME280;66135;0.000;0.000;2023-05-23T06:54:16;102017.88;;;20.27;64.08
77161;BME280;66135;0.000;0.000;2023-05-23T06:56:41;102016.13;;;20.26;63.89
77161;BME280;66135;0.000;0.000;2023-05-23T06:59:07;102026.84;;;20.28;64.10
77161;BME280;66135;0.000;0.000;2023-05-23T07:01:32;102028.75;;;20.27;63.90
77161;BME280;66135;0.000;0.000;2023-05-23T07:03:58;102038.94;;;20.25;64.01
77161;BME280;66135;0.000;0.000;2023-05-23T07:06:24;102029.91;;;20.25;64.14
77161;BME280;66135;0.000;0.000;2023-05-23T07:08:49;102042.69;;;20.24;64.07
77161;BME280;66135;0.000;0.000;2023-05-23T07:11:15;102036.22;;;20.25;64.00
77161;BME280;66135;0.000;0.000;2023-05-23T07:13:40;102043.69;;;20.23;64.09
77161;BME280;66135;0.000;0.000;2023-05-23T07:16:05;102040.97;;;20.23;64.03
77161;BME280;66135;0.000;0.000;2023-05-23T07:18:31;102035.53;;;20.23;64.18
77161;BME280;66135;0.000;0.000;2023-05-23T07:20:56;102052.53;;;20.25;64.57
77161;BME280;66135;0.000;0.000;2023-05-23T07:23:22;102053.56;;;20.24;64.49
77161;BME280;66135;0.000;0.000;2023-05-23T07:25:51;102050.00;;;20.24;64.52
77161;BME280;66135;0.000;0.000;2023-05-23T07:28:16;102050.00;;;20.24;64.57
77161;BME280;66135;0.000;0.000;2023-05-23T07:30:42;102055.97;;;20.27;64.51
77161;BME280;66135;0.000;0.000;2023-05-23T07:33:07;102056.78;;;20.28;64.64
77161;BME280;66135;0.000;0.000;2023-05-23T07:35:33;102047.97;;;20.26;64.51
77161;BME280;66135;0.000;0.000;2023-05-23T07:37:58;102061.56;;;20.26;64.75
77161;BME280;66135;0.000;0.000;2023-05-23T07:40:23;102055.25;;;20.25;64.66
77161;BME280;66135;0.000;0.000;2023-05-23T07:42:49;102057.13;;;20.25;64.61
77161;BME280;66135;0.000;0.000;2023-05-23T07:45:14;102059.84;;;20.25;64.68
77161;BME280;66135;0.000;0.000;2023-05-23T07:47:40;102062.72;;;20.23;64.50
77161;BME280;66135;0.000;0.000;2023-05-23T07:50:06;102060.88;;;20.24;64.48
77161;BME280;66135;0.000;0.000;2023-05-23T07:52:32;102071.75;;;20.24;64.59
77161;BME280;66135;0.000;0.000;2023-05-23T07:54:58;102071.44;;;20.27;64.47
77161;BME280;66135;0.000;0.000;2023-05-23T07:57:23;102065.13;;;20.26;64.60
77161;BME280;66135;0.000;0.000;2023-05-23T07:59:49;102084.00;;;20.28;64.74
77161;BME280;66135;0.000;0.000;2023-05-23T08:02:18;102076.72;;;20.28;64.71
77161;BME280;66135;0.000;0.000;2023-05-23T08:04:45;102073.81;;;20.30;64.75
77161;BME280;66135;0.000;0.000;2023-05-23T08:07:11;102080.28;;;20.29;64.97
77161;BME280;66135;0.000;0.000;2023-05-23T08:09:40;102083.88;;;20.29;65.00
77161;BME280;66135;0.000;0.000;2023-05-23T08:12:07;102081.81;;;20.31;65.11
77161;BME280;66135;0.000;0.000;2023-05-23T08:14:33;102083.38;;;20.34;65.59
77161;BME280;66135;0.000;0.000;2023-05-23T08:16:59;102092.25;;;20.36;65.25
77161;BME280;66135;0.000;0.000;2023-05-23T08:19:24;102087.66;;;20.36;65.77
77161;BME280;66135;0.000;0.000;2023-05-23T08:21:50;102094.81;;;20.37;65.88
77161;BME280;66135;0.000;0.000;2023-05-23T08:24:20;102086.63;;;20.37;65.87
77161;BME280;66135;0.000;0.000;2023-05-23T08:26:46;102088.34;;;20.38;65.87
77161;BME280;66135;0.000;0.000;2023-05-23T08:29:12;102091.06;;;20.38;65.82
77161;BME280;66135;0.000;0.000;2023-05-23T08:31:38;102084.94;;;20.36;66.08
77161;BME280;66135;0.000;0.000;2023-05-23T08:34:03;102102.44;;;20.34;66.18
77161;BME280;66135;0.000;0.000;2023-05-23T08:36:29;102090.84;;;20.32;66.15
77161;BME280;66135;0.000;0.000;2023-05-23T08:38:56;102095.28;;;20.33;66.33
77161;BME280;66135;0.000;0.000;2023-05-23T08:41:22;102105.31;;;20.32;66.32
77161;BME280;66135;0.000;0.000;2023-05-23T08:43:48;102092.72;;;20.31;66.17
77161;BME280;66135;0.000;0.000;2023-05-23T08:46:14;102101.56;;;20.33;66.18
77161;BME280;66135;0.000;0.000;2023-05-23T08:48:42;102100.41;;;20.36;66.18
77161;BME280;66135;0.000;0.000;2023-05-23T08:51:12;102104.00;;;20.36;66.31
77161;BME280;66135;0.000;0.000;2023-05-23T08:53:41;102102.97;;;20.37;66.37
77161;BME280;66135;0.000;0.000;2023-05-23T08:56:11;102103.66;;;20.39;66.41
77161;BME280;66135;0.000;0.000;2023-05-23T08:58:36;102105.53;;;20.39;66.27
77161;BME280;66135;0.000;0.000;2023-05-23T09:01:03;102117.13;;;20.41;66.19
77161;BME280;66135;0.000;0.000;2023-05-23T09:03:28;102107.38;;;20.38;66.33
77161;BME280;66135;0.000;0.000;2023-05-23T09:05:53;102116.75;;;20.36;66.33
77161;BME280;66135;0.000;0.000;2023-05-23T09:08:20;102114.03;;;20.36;66.30
77161;BME280;66135;0.000;0.000;2023-05-23T09:10:47;102117.75;;;20.35;66.25
77161;BME280;66135;0.000;0.000;2023-05-23T09:13:14;102115.19;;;20.33;66.18
77161;BME280;66135;0.000;0.000;2023-05-23T09:16:04;102113.31;;;20.34;66.34
77161;BME280;66135;0.000;0.000;2023-05-23T09:18:35;102115.19;;;20.33;66.09
77161;BME280;66135;0.000;0.000;2023-05-23T09:21:01;102117.06;;;20.33;66.12
77161;BME280;66135;0.000;0.000;2023-05-23T09:23:33;102119.78;;;20.33;66.02
77161;BME280;66135;0.000;0.000;2023-05-23T09:26:02;102131.50;;;20.33;66.12
77161;BME280;66135;0.000;0.000;2023-05-23T09:28:27;102127.78;;;20.34;65.94
77161;BME280;66135;0.000;0.000;2023-05-23T09:30:59;102118.59;;;20.35;65.99
77161;BME280;66135;0.000;0.000;2023-05-23T09:33:48;102131.88;;;20.38;65.77
77161;BME280;66135;0.000;0.000;2023-05-23T09:36:15;102131.06;;;20.38;65.67
77161;BME280;66135;0.000;0.000;2023-05-23T09:38:42;102126.44;;;20.38;65.62
77161;BME280;66135;0.000;0.000;2023-05-23T09:41:09;102142.63;;;20.40;65.62
77161;BME280;66135;0.000;0.000;2023-05-23T09:43:58;102140.91;;;20.39;65.64
77161;BME280;66135;0.000;0.000;2023-05-23T09:46:27;102142.78;;;20.38;65.71
77161;BME280;66135;0.000;0.000;2023-05-23T09:48:54;102141.78;;;20.39;65.60
77161;BME280;66135;0.000;0.000;2023-05-23T09:51:22;102132.75;;;20.39;65.71
77161;BME280;66135;0.000;0.000;2023-05-23T09:53:50;102139.91;;;20.40;65.75
77161;BME280;66135;0.000;0.000;2023-05-23T09:56:18;102128.88;;;20.41;65.48
77161;BME280;66135;0.000;0.000;2023-05-23T09:58:46;102130.56;;;20.42;65.60
77161;BME280;66135;0.000;0.000;2023-05-23T10:01:12;102135.00;;;20.43;65.67
77161;BME280;66135;0.000;0.000;2023-05-23T10:03:39;102132.28;;;20.43;65.64
77161;BME280;66135;0.000;0.000;2023-05-23T10:06:14;102133.13;;;20.44;65.62
77161;BME280;66135;0.000;0.000;2023-05-23T10:08:46;102136.88;;;20.43;65.76
77161;BME280;66135;0.000;0.000;2023-05-23T10:13:44;102145.91;;;20.43;66.05
77161;BME280;66135;0.000;0.000;2023-05-23T10:16:18;102142.31;;;20.43;65.71
77161;BME280;66135;0.000;0.000;2023-05-23T10:18:44;102141.13;;;20.45;65.53
77161;BME280;66135;0.000;0.000;2023-05-23T10:21:18;102135.69;;;20.45;65.32
77161;BME280;66135;0.000;0.000;2023-05-23T10:23:49;102137.56;;;20.45;65.21
77161;BME280;66135;0.000;0.000;2023-05-23T10:26:16;102139.09;;;20.47;65.38
77161;BME280;66135;0.000;0.000;2023-05-23T10:28:43;102139.09;;;20.47;65.25
77161;BME280;66135;0.000;0.000;2023-05-23T10:31:09;102145.25;;;20.49;65.35
77161;BME280;66135;0.000;0.000;2023-05-23T10:33:40;102128.91;;;20.49;65.17
77161;BME280;66135;0.000;0.000;2023-05-23T10:36:16;102130.78;;;20.49;65.41
77161;BME280;66135;0.000;0.000;2023-05-23T10:38:50;102134.19;;;20.51;65.25
77161;BME280;66135;0.000;0.000;2023-05-23T10:41:37;102125.88;;;20.52;65.04
77161;BME280;66135;0.000;0.000;2023-05-23T10:44:29;102138.47;;;20.53;65.12
77161;BME280;66135;0.000;0.000;2023-05-23T10:51:51;102138.81;;;20.50;65.18
77161;BME280;66135;0.000;0.000;2023-05-23T10:54:19;102137.94;;;20.50;65.27
77161;BME280;66135;0.000;0.000;2023-05-23T10:56:45;102133.19;;;20.52;65.38
77161;BME280;66135;0.000;0.000;2023-05-23T10:59:19;102131.31;;;20.52;65.47
77161;BME280;66135;0.000;0.000;2023-05-23T11:01:50;102121.44;;;20.51;65.55
77161;BME280;66135;0.000;0.000;2023-05-23T11:04:24;102126.03;;;20.51;65.53
77161;BME280;66135;0.000;0.000;2023-05-23T11:06:49;102123.31;;;20.51;65.63
77161;BME280;66135;0.000;0.000;2023-05-23T11:09:16;102136.75;;;20.52;65.62
77161;BME280;66135;0.000;0.000;2023-05-23T11:12:06;102140.19;;;20.54;65.59
77161;BME280;66135;0.000;0.000;2023-05-23T11:16:57;102139.19;;;20.55;65.69
77161;BME280;66135;0.000;0.000;2023-05-23T11:19:25;102137.28;;;20.56;65.56
77161;BME280;66135;0.000;0.000;2023-05-23T11:22:02;102125.25;;;20.58;65.98
77161;BME280;66135;0.000;0.000;2023-05-23T11:24:55;102132.38;;;20.59;65.80
77161;BME280;66135;0.000;0.000;2023-05-23T11:27:32;102135.81;;;20.61;65.91
77161;BME280;66135;0.000;0.000;2023-05-23T11:30:15;102121.19;;;20.62;65.88
77161;BME280;66135;0.000;0.000;2023-05-23T11:32:51;102130.34;;;20.61;65.96
77161;BME280;66135;0.000;0.000;2023-05-23T11:35:17;102133.41;;;20.58;65.98
77161;BME280;66135;0.000;0.000;2023-05-23T11:37:45;102132.38;;;20.59;66.11
77161;BME280;66135;0.000;0.000;2023-05-23T11:42:56;102137.66;;;20.61;66.20
77161;BME280;66135;0.000;0.000;2023-05-23T11:45:22;102134.94;;;20.61;66.18
77161;BME280;66135;0.000;0.000;2023-05-23T11:47:47;102135.81;;;20.61;66.29
77161;BME280;66135;0.000;0.000;2023-05-23T11:50:14;102139.56;;;20.60;66.36
77161;BME280;66135;0.000;0.000;2023-05-23T11:52:40;102144.13;;;20.60;66.29
77161;BME280;66135;0.000;0.000;2023-05-23T11:55:06;102136.81;;;20.60;66.27
77161;BME280;66135;0.000;0.000;2023-05-23T11:57:32;102143.97;;;20.61;66.23
77161;BME280;66135;0.000;0.000;2023-05-23T11:59:57;102142.97;;;20.62;66.34
77161;BME280;66135;0.000;0.000;2023-05-23T12:02:27;102142.97;;;20.62;66.26
77161;BME280;66135;0.000;0.000;2023-05-23T12:04:52;102137.53;;;20.62;66.43
77161;BME280;66135;0.000;0.000;2023-05-23T12:07:20;102144.66;;;20.63;66.35
77161;BME280;66135;0.000;0.000;2023-05-23T12:09:46;102133.78;;;20.63;66.41
77161;BME280;66135;0.000;0.000;2023-05-23T12:12:12;102139.22;;;20.63;66.08
77161;BME280;66135;0.000;0.000;2023-05-23T12:14:37;102143.81;;;20.63;65.82
77161;BME280;66135;0.000;0.000;2023-05-23T12:17:10;102143.81;;;20.63;65.78
77161;BME280;66135;0.000;0.000;2023-05-23T12:19:35;102142.97;;;20.62;65.92
77161;BME280;66135;0.000;0.000;2023-05-23T12:22:04;102143.97;;;20.61;65.82
77161;BME280;66135;0.000;0.000;2023-05-23T12:24:30;102146.84;;;20.60;65.80
77161;BME280;66135;0.000;0.000;2023-05-23T12:26:59;102143.59;;;20.56;65.52
77161;BME280;66135;0.000;0.000;2023-05-23T12:29:29;102146.31;;;20.56;65.20
77161;BME280;66135;0.000;0.000;2023-05-23T12:31:57;102149.03;;;20.56;64.94
77161;BME280;66135;0.000;0.000;2023-05-23T12:34:23;102160.09;;;20.55;64.57
77161;BME280;66135;0.000;0.000;2023-05-23T12:36:48;102150.06;;;20.55;64.51
77161;BME280;66135;0.000;0.000;2023-05-23T12:39:14;102150.06;;;20.55;63.62
77161;BME280;66135;0.000;0.000;2023-05-23T12:41:43;102150.22;;;20.54;63.18
77161;BME280;66135;0.000;0.000;2023-05-23T12:44:09;102151.06;;;20.54;62.51
77161;BME280;66135;0.000;0.000;2023-05-23T12:46:36;102155.50;;;20.55;62.81
77161;BME280;66135;0.000;0.000;2023-05-23T12:49:01;102153.78;;;20.54;62.02
77161;BME280;66135;0.000;0.000;2023-05-23T12:51:27;102166.56;;;20.54;61.70
77161;BME280;66135;0.000;0.000;2023-05-23T12:53:53;102172.84;;;20.54;61.67
77161;BME280;66135;0.000;0.000;2023-05-23T12:56:19;102172.84;;;20.54;60.81
77161;BME280;66135;0.000;0.000;2023-05-23T12:58:45;102170.13;;;20.54;61.09
77161;BME280;66135;0.000;0.000;2023-05-23T13:01:10;102177.47;;;20.54;60.14
77161;BME280;66135;0.000;0.000;2023-05-23T13:03:36;102174.88;;;20.52;59.61
77161;BME280;66135;0.000;0.000;2023-05-23T13:06:01;102182.19;;;20.52;59.74
77161;BME280;66135;0.000;0.000;2023-05-23T13:08:27;102167.56;;;20.53;59.30
77161;BME280;66135;0.000;0.000;2023-05-23T13:10:53;102170.13;;;20.54;59.53
77161;BME280;66135;0.000;0.000;2023-05-23T13:13:19;102155.50;;;20.55;59.96
77161;BME280;66135;0.000;0.000;2023-05-23T13:15:44;102170.13;;;20.54;60.08
77161;BME280;66135;0.000;0.000;2023-05-23T13:18:10;102177.47;;;20.54;59.90
77161;BME280;66135;0.000;0.000;2023-05-23T13:20:36;102184.06;;;20.51;59.86